sensor_id;sensor_type;location;lat;lon;timestamp;temperature;humidity
19552;DHT22;9921;47.186;9.778;2023-12-22T00:01:54;9.50;99.90
19552;DHT22;9921;47.186;9.778;2023-12-22T00:04:21;9.50;99.90
19552;DHT22;9921;47.186;9.778;2023-12-22T00:06:48;9.50;99.90
19552;DHT22;9921;47.186;9.778;2023-12-22T00:09:18;9.50;99.90
19552;DHT22;9921;47.186;9.778;2023-12-22T00:11:45;9.50;99.90
19552;DHT22;9921;47.186;9.778;2023-12-22T00:14:12;9.50;99.90
19552;DHT22;9921;47.186;9.778;2023-12-22T00:16:39;9.40;99.90
19552;DHT22;9921;47.186;9.778;2023-12-22T00:19:06;9.30;99.90
19552;DHT22;9921;47.186;9.778;2023-12-22T00:21:33;9.30;99.90
19552;DHT22;9921;47.186;9.778;2023-12-22T00:23:59;9.30;99.90
19552;DHT22;9921;47.186;9.778;2023-12-22T00:26:28;9.20;99.90
19552;DHT22;9921;47.186;9.778;2023-12-22T00:28:54;9.10;99.90
19552;DHT22;9921;47.186;9.778;2023-12-22T00:31:21;9.10;99.90
19552;DHT22;9921;47.186;9.778;2023-12-22T00:33:48;9.10;99.90
19552;DHT22;9921;47.186;9.778;2023-12-22T00:36:15;9.10;99.90
19552;DHT22;9921;47.186;9.778;2023-12-22T00:38:43;9.00;99.90
19552;DHT22;9921;47.186;9.778;2023-12-22T00:41:10;9.10;99.90
19552;DHT22;9921;47.186;9.778;2023-12-22T00:43:38;9.10;99.90
19552;DHT22;9921;47.186;9.778;2023-12-22T00:46:05;9.10;99.90
19552;DHT22;9921;47.186;9.778;2023-12-22T00:48:35;9.10;99.90
19552;DHT22;9921;47.186;9.778;2023-12-22T00:51:02;9.10;99.90
19552;DHT22;9921;47.186;9.778;2023-12-22T00:53:29;9.10;99.90
19552;DHT22;9921;47.186;9.778;2023-12-22T00:55:55;9.20;99.90
19552;DHT22;9921;47.186;9.778;2023-12-22T00:58:22;9.20;99.90
19552;DHT22;9921;47.186;9.778;2023-12-22T01:00:50;9.30;99.90
19552;DHT22;9921;47.186;9.778;2023-12-22T01:03:17;9.30;99.90
19552;DHT22;9921;47.186;9.778;2023-12-22T01:05:44;9.30;99.90
19552;DHT22;9921;47.186;9.778;2023-12-22T01:08:11;9.30;99.90
19552;DHT22;9921;47.186;9.778;2023-12-22T01:10:38;9.30;99.90
19552;DHT22;9921;47.186;9.778;2023-12-22T01:13:04;9.30;99.90
19552;DHT22;9921;47.186;9.778;2023-12-22T01:15:31;9.30;99.90
19552;DHT22;9921;47.186;9.778;2023-12-22T01:17:59;9.30;99.90
19552;DHT22;9921;47.186;9.778;2023-12-22T01:20:26;9.40;99.90
19552;DHT22;9921;47.186;9.778;2023-12-22T01:22:53;9.40;99.90
19552;DHT22;9921;47.186;9.778;2023-12-22T01:25:20;9.40;99.90
19552;DHT22;9921;47.186;9.778;2023-12-22T01:27:46;9.30;99.90
19552;DHT22;9921;47.186;9.778;2023-12-22T01:30:15;9.40;99.90
19552;DHT22;9921;47.186;9.778;2023-12-22T01:32:41;9.40;99.90
19552;DHT22;9921;47.186;9.778;2023-12-22T01:35:10;9.40;99.90
19552;DHT22;9921;47.186;9.778;2023-12-22T01:37:40;9.40;99.90
19552;DHT22;9921;47.186;9.778;2023-12-22T01:40:08;9.40;99.90
19552;DHT22;9921;47.186;9.778;2023-12-22T01:42:34;9.30;99.90
19552;DHT22;9921;47.186;9.778;2023-12-22T01:45:02;9.30;99.90
19552;DHT22;9921;47.186;9.778;2023-12-22T01:47:28;9.40;99.90
19552;DHT22;9921;47.186;9.778;2023-12-22T01:49:55;9.40;99.90
19552;DHT22;9921;47.186;9.778;2023-12-22T01:52:24;9.40;99.90
19552;DHT22;9921;47.186;9.778;2023-12-22T01:54:52;9.40;99.90
19552;DHT22;9921;47.186;9.778;2023-12-22T01:57:20;9.40;99.90
19552;DHT22;9921;47.186;9.778;2023-12-22T01:59:48;9.40;99.90
19552;DHT22;9921;47.186;9.778;2023-12-22T02:02:16;9.40;99.90
19552;DHT22;9921;47.186;9.778;2023-12-22T02:04:44;9.40;99.90
19552;DHT22;9921;47.186;9.778;2023-12-22T02:07:12;9.40;99.90
19552;DHT22;9921;47.186;9.778;2023-12-22T02:09:40;9.30;99.90
19552;DHT22;9921;47.186;9.778;2023-12-22T02:12:07;9.30;99.90
19552;DHT22;9921;47.186;9.778;2023-12-22T02:14:34;9.30;99.90
19552;DHT22;9921;47.186;9.778;2023-12-22T02:17:11;9.20;99.90
19552;DHT22;9921;47.186;9.778;2023-12-22T02:19:42;9.20;99.90
19552;DHT22;9921;47.186;9.778;2023-12-22T02:22:11;9.10;99.90
19552;DHT22;9921;47.186;9.778;2023-12-22T02:24:40;9.10;99.90
19552;DHT22;9921;47.186;9.778;2023-12-22T02:27:14;9.00;99.90
19552;DHT22;9921;47.186;9.778;2023-12-22T02:29:46;9.00;99.90
19552;DHT22;9921;47.186;9.778;2023-12-22T02:32:19;9.00;99.90
19552;DHT22;9921;47.186;9.778;2023-12-22T02:34:49;9.00;99.90
19552;DHT22;9921;47.186;9.778;2023-12-22T02:37:18;8.90;99.90
19552;DHT22;9921;47.186;9.778;2023-12-22T02:39:47;8.80;99.90
19552;DHT22;9921;47.186;9.778;2023-12-22T02:42:15;8.80;99.90
19552;DHT22;9921;47.186;9.778;2023-12-22T02:44:44;8.80;99.90
19552;DHT22;9921;47.186;9.778;2023-12-22T02:47:10;8.70;99.90
19552;DHT22;9921;47.186;9.778;2023-12-22T02:49:37;8.60;99.90
19552;DHT22;9921;47.186;9.778;2023-12-22T02:52:05;8.60;99.90
19552;DHT22;9921;47.186;9.778;2023-12-22T02:54:32;8.60;99.90
19552;DHT22;9921;47.186;9.778;2023-12-22T02:57:00;8.60;99.90
19552;DHT22;9921;47.186;9.778;2023-12-22T02:59:27;8.50;99.90
19552;DHT22;9921;47.186;9.778;2023-12-22T03:01:54;8.50;99.90
19552;DHT22;9921;47.186;9.778;2023-12-22T03:04:21;8.50;99.90
19552;DHT22;9921;47.186;9.778;2023-12-22T03:06:48;8.40;99.90
19552;DHT22;9921;47.186;9.778;2023-12-22T03:09:15;8.40;99.90
19552;DHT22;9921;47.186;9.778;2023-12-22T03:11:42;8.40;99.90
19552;DHT22;9921;47.186;9.778;2023-12-22T03:14:10;8.30;99.90
19552;DHT22;9921;47.186;9.778;2023-12-22T03:16:37;8.30;99.90
19552;DHT22;9921;47.186;9.778;2023-12-22T03:19:03;8.30;99.90
19552;DHT22;9921;47.186;9.778;2023-12-22T03:21:30;8.30;99.90
19552;DHT22;9921;47.186;9.778;2023-12-22T03:23:57;8.40;99.90
19552;DHT22;9921;47.186;9.778;2023-12-22T03:26:26;8.40;99.90
19552;DHT22;9921;47.186;9.778;2023-12-22T03:28:53;8.50;99.90
19552;DHT22;9921;47.186;9.778;2023-12-22T03:31:22;8.50;99.90
19552;DHT22;9921;47.186;9.778;2023-12-22T03:33:48;8.50;99.90
19552;DHT22;9921;47.186;9.778;2023-12-22T03:36:15;8.50;99.90
19552;DHT22;9921;47.186;9.778;2023-12-22T03:38:42;8.60;99.90
19552;DHT22;9921;47.186;9.778;2023-12-22T03:41:09;8.50;99.90
19552;DHT22;9921;47.186;9.778;2023-12-22T03:43:36;8.50;99.90
19552;DHT22;9921;47.186;9.778;2023-12-22T03:46:03;8.50;99.90
19552;DHT22;9921;47.186;9.778;2023-12-22T03:48:31;8.50;99.90
19552;DHT22;9921;47.186;9.778;2023-12-22T03:50:58;8.40;99.90
19552;DHT22;9921;47.186;9.778;2023-12-22T03:53:25;8.40;99.90
19552;DHT22;9921;47.186;9.778;2023-12-22T03:55:52;8.40;99.90
19552;DHT22;9921;47.186;9.778;2023-12-22T03:58:18;8.40;99.90
19552;DHT22;9921;47.186;9.778;2023-12-22T04:00:45;8.30;99.90
19552;DHT22;9921;47.186;9.778;2023-12-22T04:03:11;8.30;99.90
19552;DHT22;9921;47.186;9.778;2023-12-22T04:05:40;8.30;99.90
19552;DHT22;9921;47.186;9.778;2023-12-22T04:08:06;8.30;99.90
19552;DHT22;9921;47.186;9.778;2023-12-22T04:10:33;8.20;99.90
19552;DHT22;9921;47.186;9.778;2023-12-22T04:13:00;8.20;99.90
19552;DHT22;9921;47.186;9.778;2023-12-22T04:15:27;8.20;99.90
19552;DHT22;9921;47.186;9.778;2023-12-22T04:17:54;8.20;99.90
19552;DHT22;9921;47.186;9.778;2023-12-22T04:20:21;8.10;99.90
19552;DHT22;9921;47.186;9.778;2023-12-22T04:22:49;8.10;99.90
19552;DHT22;9921;47.186;9.778;2023-12-22T04:25:16;8.10;99.90
19552;DHT22;9921;47.186;9.778;2023-12-22T04:27:43;8.10;99.90
19552;DHT22;9921;47.186;9.778;2023-12-22T04:30:10;8.10;99.90
19552;DHT22;9921;47.186;9.778;2023-12-22T04:32:37;8.20;99.90
19552;DHT22;9921;47.186;9.778;2023-12-22T04:35:05;8.20;99.90
19552;DHT22;9921;47.186;9.778;2023-12-22T04:37:31;8.20;99.90
19552;DHT22;9921;47.186;9.778;2023-12-22T04:40:00;8.20;99.90
19552;DHT22;9921;47.186;9.778;2023-12-22T04:42:27;8.20;99.90
19552;DHT22;9921;47.186;9.778;2023-12-22T04:44:54;8.20;99.90
19552;DHT22;9921;47.186;9.778;2023-12-22T04:47:21;8.20;99.90
19552;DHT22;9921;47.186;9.778;2023-12-22T04:49:48;8.10;99.90
19552;DHT22;9921;47.186;9.778;2023-12-22T04:52:14;8.10;99.90
19552;DHT22;9921;47.186;9.778;2023-12-22T04:54:41;8.10;99.90
19552;DHT22;9921;47.186;9.778;2023-12-22T04:57:09;8.10;99.90
19552;DHT22;9921;47.186;9.778;2023-12-22T04:59:36;8.10;99.90
19552;DHT22;9921;47.186;9.778;2023-12-22T05:02:03;8.00;99.90
19552;DHT22;9921;47.186;9.778;2023-12-22T05:04:30;8.00;99.90
19552;DHT22;9921;47.186;9.778;2023-12-22T05:06:57;7.90;99.90
19552;DHT22;9921;47.186;9.778;2023-12-22T05:09:23;7.90;99.90
19552;DHT22;9921;47.186;9.778;2023-12-22T05:11:51;7.90;99.90
19552;DHT22;9921;47.186;9.778;2023-12-22T05:14:19;7.90;99.90
19552;DHT22;9921;47.186;9.778;2023-12-22T05:16:46;7.90;99.90
19552;DHT22;9921;47.186;9.778;2023-12-22T05:19:13;7.90;99.90
19552;DHT22;9921;47.186;9.778;2023-12-22T05:21:39;7.90;99.90
19552;DHT22;9921;47.186;9.778;2023-12-22T05:24:06;7.90;99.90
19552;DHT22;9921;47.186;9.778;2023-12-22T05:26:33;7.90;99.90
19552;DHT22;9921;47.186;9.778;2023-12-22T05:29:00;7.90;99.90
19552;DHT22;9921;47.186;9.778;2023-12-22T05:31:28;8.00;99.90
19552;DHT22;9921;47.186;9.778;2023-12-22T05:33:56;7.90;99.90
19552;DHT22;9921;47.186;9.778;2023-12-22T05:36:27;7.90;99.90
19552;DHT22;9921;47.186;9.778;2023-12-22T05:38:53;7.90;99.90
19552;DHT22;9921;47.186;9.778;2023-12-22T05:41:21;8.00;99.90
19552;DHT22;9921;47.186;9.778;2023-12-22T05:43:48;7.90;99.90
19552;DHT22;9921;47.186;9.778;2023-12-22T05:46:15;8.00;99.90
19552;DHT22;9921;47.186;9.778;2023-12-22T05:48:43;8.10;99.90
19552;DHT22;9921;47.186;9.778;2023-12-22T05:51:10;8.10;99.90
19552;DHT22;9921;47.186;9.778;2023-12-22T05:53:39;8.00;99.90
19552;DHT22;9921;47.186;9.778;2023-12-22T05:56:16;8.10;99.90
19552;DHT22;9921;47.186;9.778;2023-12-22T05:58:43;8.10;99.90
19552;DHT22;9921;47.186;9.778;2023-12-22T06:01:14;8.10;99.90
19552;DHT22;9921;47.186;9.778;2023-12-22T06:03:42;8.10;99.90
19552;DHT22;9921;47.186;9.778;2023-12-22T06:06:09;8.10;99.90
19552;DHT22;9921;47.186;9.778;2023-12-22T06:08:37;8.10;99.90
19552;DHT22;9921;47.186;9.778;2023-12-22T06:11:03;8.10;99.90
19552;DHT22;9921;47.186;9.778;2023-12-22T06:13:30;8.10;99.90
19552;DHT22;9921;47.186;9.778;2023-12-22T06:15:57;8.10;99.90
19552;DHT22;9921;47.186;9.778;2023-12-22T06:18:24;8.10;99.90
19552;DHT22;9921;47.186;9.778;2023-12-22T06:20:52;8.10;99.90
19552;DHT22;9921;47.186;9.778;2023-12-22T06:23:20;8.10;99.90
19552;DHT22;9921;47.186;9.778;2023-12-22T06:25:46;8.10;99.90
19552;DHT22;9921;47.186;9.778;2023-12-22T06:28:13;8.10;99.90
19552;DHT22;9921;47.186;9.778;2023-12-22T06:30:42;8.10;99.90
19552;DHT22;9921;47.186;9.778;2023-12-22T06:33:09;8.10;99.90
19552;DHT22;9921;47.186;9.778;2023-12-22T06:35:36;8.10;99.90
19552;DHT22;9921;47.186;9.778;2023-12-22T06:38:07;8.10;99.90
19552;DHT22;9921;47.186;9.778;2023-12-22T06:40:37;8.10;99.90
19552;DHT22;9921;47.186;9.778;2023-12-22T06:43:04;8.10;99.90
19552;DHT22;9921;47.186;9.778;2023-12-22T06:45:33;8.10;99.90
19552;DHT22;9921;47.186;9.778;2023-12-22T06:48:00;8.00;99.90
19552;DHT22;9921;47.186;9.778;2023-12-22T06:50:27;8.00;99.90
19552;DHT22;9921;47.186;9.778;2023-12-22T06:52:56;8.00;99.90
19552;DHT22;9921;47.186;9.778;2023-12-22T06:55:25;8.00;99.90
19552;DHT22;9921;47.186;9.778;2023-12-22T06:57:52;8.10;99.90
19552;DHT22;9921;47.186;9.778;2023-12-22T07:00:20;8.10;99.90
19552;DHT22;9921;47.186;9.778;2023-12-22T07:02:47;8.10;99.90
19552;DHT22;9921;47.186;9.778;2023-12-22T07:05:33;8.10;99.90
19552;DHT22;9921;47.186;9.778;2023-12-22T07:08:04;8.10;99.90
19552;DHT22;9921;47.186;9.778;2023-12-22T07:10:33;8.00;99.90
19552;DHT22;9921;47.186;9.778;2023-12-22T07:13:00;8.00;99.90
19552;DHT22;9921;47.186;9.778;2023-12-22T07:15:26;8.00;99.90
19552;DHT22;9921;47.186;9.778;2023-12-22T07:17:54;8.00;99.90
19552;DHT22;9921;47.186;9.778;2023-12-22T07:20:21;8.00;99.90
19552;DHT22;9921;47.186;9.778;2023-12-22T07:22:48;8.10;99.90
19552;DHT22;9921;47.186;9.778;2023-12-22T07:25:15;8.10;99.90
19552;DHT22;9921;47.186;9.778;2023-12-22T07:27:46;8.10;99.90
19552;DHT22;9921;47.186;9.778;2023-12-22T07:30:13;8.10;99.90
19552;DHT22;9921;47.186;9.778;2023-12-22T07:32:45;8.10;99.90
19552;DHT22;9921;47.186;9.778;2023-12-22T07:35:14;8.00;99.90
19552;DHT22;9921;47.186;9.778;2023-12-22T07:37:41;8.00;99.90
19552;DHT22;9921;47.186;9.778;2023-12-22T07:40:09;8.00;99.90
19552;DHT22;9921;47.186;9.778;2023-12-22T07:42:36;8.00;99.90
19552;DHT22;9921;47.186;9.778;2023-12-22T07:45:06;8.00;99.90
19552;DHT22;9921;47.186;9.778;2023-12-22T07:47:33;8.00;99.90
19552;DHT22;9921;47.186;9.778;2023-12-22T07:50:00;8.00;99.90
19552;DHT22;9921;47.186;9.778;2023-12-22T07:52:27;8.00;99.90
19552;DHT22;9921;47.186;9.778;2023-12-22T07:54:54;8.00;99.90
19552;DHT22;9921;47.186;9.778;2023-12-22T07:57:20;8.00;99.90
19552;DHT22;9921;47.186;9.778;2023-12-22T07:59:47;8.00;99.90
19552;DHT22;9921;47.186;9.778;2023-12-22T08:02:16;8.00;99.90
19552;DHT22;9921;47.186;9.778;2023-12-22T08:04:42;8.00;99.90
19552;DHT22;9921;47.186;9.778;2023-12-22T08:07:09;8.10;99.90
19552;DHT22;9921;47.186;9.778;2023-12-22T08:09:36;8.10;99.90
19552;DHT22;9921;47.186;9.778;2023-12-22T08:12:04;8.10;99.90
19552;DHT22;9921;47.186;9.778;2023-12-22T08:14:30;8.20;99.90
19552;DHT22;9921;47.186;9.778;2023-12-22T08:16:58;8.20;99.90
19552;DHT22;9921;47.186;9.778;2023-12-22T08:19:26;8.20;99.90
19552;DHT22;9921;47.186;9.778;2023-12-22T08:21:53;8.20;99.90
19552;DHT22;9921;47.186;9.778;2023-12-22T08:24:20;8.20;99.90
19552;DHT22;9921;47.186;9.778;2023-12-22T08:26:46;8.20;99.90
19552;DHT22;9921;47.186;9.778;2023-12-22T08:29:13;8.30;99.90
19552;DHT22;9921;47.186;9.778;2023-12-22T08:31:41;8.20;99.90
19552;DHT22;9921;47.186;9.778;2023-12-22T08:34:09;8.20;99.90
19552;DHT22;9921;47.186;9.778;2023-12-22T08:36:37;8.30;99.90
19552;DHT22;9921;47.186;9.778;2023-12-22T08:39:04;8.20;99.90
19552;DHT22;9921;47.186;9.778;2023-12-22T08:41:31;8.30;99.90
19552;DHT22;9921;47.186;9.778;2023-12-22T08:44:01;8.20;99.90
19552;DHT22;9921;47.186;9.778;2023-12-22T08:46:28;8.30;99.90
19552;DHT22;9921;47.186;9.778;2023-12-22T08:48:56;8.30;99.90
19552;DHT22;9921;47.186;9.778;2023-12-22T08:51:23;8.30;99.90
19552;DHT22;9921;47.186;9.778;2023-12-22T08:53:52;8.30;99.90
19552;DHT22;9921;47.186;9.778;2023-12-22T08:56:20;8.30;99.90
19552;DHT22;9921;47.186;9.778;2023-12-22T08:58:47;8.40;99.90
19552;DHT22;9921;47.186;9.778;2023-12-22T09:01:17;8.30;99.90
19552;DHT22;9921;47.186;9.778;2023-12-22T09:03:44;8.40;99.90
19552;DHT22;9921;47.186;9.778;2023-12-22T09:06:14;8.40;99.90
19552;DHT22;9921;47.186;9.778;2023-12-22T09:08:41;8.30;99.90
19552;DHT22;9921;47.186;9.778;2023-12-22T09:11:10;8.40;99.90
19552;DHT22;9921;47.186;9.778;2023-12-22T09:13:40;8.40;99.90
19552;DHT22;9921;47.186;9.778;2023-12-22T09:16:07;8.30;99.90
19552;DHT22;9921;47.186;9.778;2023-12-22T09:18:34;8.30;99.90
19552;DHT22;9921;47.186;9.778;2023-12-22T09:21:02;8.30;99.90
19552;DHT22;9921;47.186;9.778;2023-12-22T09:23:29;8.20;99.90
19552;DHT22;9921;47.186;9.778;2023-12-22T09:25:57;8.20;99.90
19552;DHT22;9921;47.186;9.778;2023-12-22T09:28:25;8.20;99.90
19552;DHT22;9921;47.186;9.778;2023-12-22T09:30:52;8.20;99.90
19552;DHT22;9921;47.186;9.778;2023-12-22T09:33:19;8.10;99.90
19552;DHT22;9921;47.186;9.778;2023-12-22T09:35:45;8.10;99.90
19552;DHT22;9921;47.186;9.778;2023-12-22T09:38:12;8.10;99.90
19552;DHT22;9921;47.186;9.778;2023-12-22T09:40:39;8.20;99.90
19552;DHT22;9921;47.186;9.778;2023-12-22T09:43:08;8.20;99.90
19552;DHT22;9921;47.186;9.778;2023-12-22T09:45:37;8.20;99.90
19552;DHT22;9921;47.186;9.778;2023-12-22T09:48:05;8.20;99.90
19552;DHT22;9921;47.186;9.778;2023-12-22T09:50:33;8.30;99.90
19552;DHT22;9921;47.186;9.778;2023-12-22T09:53:01;8.30;99.90
19552;DHT22;9921;47.186;9.778;2023-12-22T09:55:30;8.30;99.90
19552;DHT22;9921;47.186;9.778;2023-12-22T09:57:57;8.30;99.90
19552;DHT22;9921;47.186;9.778;2023-12-22T10:00:27;8.40;99.90
19552;DHT22;9921;47.186;9.778;2023-12-22T10:02:56;8.40;99.90
19552;DHT22;9921;47.186;9.778;2023-12-22T10:05:23;8.40;99.90
19552;DHT22;9921;47.186;9.778;2023-12-22T10:07:50;8.40;99.90
19552;DHT22;9921;47.186;9.778;2023-12-22T10:10:18;8.40;99.90
19552;DHT22;9921;47.186;9.778;2023-12-22T10:12:46;8.40;99.90
19552;DHT22;9921;47.186;9.778;2023-12-22T10:15:14;8.50;99.90
19552;DHT22;9921;47.186;9.778;2023-12-22T10:17:44;8.50;99.90
19552;DHT22;9921;47.186;9.778;2023-12-22T10:20:12;8.50;99.90
19552;DHT22;9921;47.186;9.778;2023-12-22T10:22:39;8.60;99.90
19552;DHT22;9921;47.186;9.778;2023-12-22T10:25:08;8.50;99.90
19552;DHT22;9921;47.186;9.778;2023-12-22T10:27:36;8.60;99.90
19552;DHT22;9921;47.186;9.778;2023-12-22T10:30:04;8.60;99.90
19552;DHT22;9921;47.186;9.778;2023-12-22T10:32:31;8.60;99.90
19552;DHT22;9921;47.186;9.778;2023-12-22T10:34:57;8.70;99.90
19552;DHT22;9921;47.186;9.778;2023-12-22T10:37:26;8.70;99.90
19552;DHT22;9921;47.186;9.778;2023-12-22T10:39:53;8.70;99.90
19552;DHT22;9921;47.186;9.778;2023-12-22T10:42:20;8.80;99.90
19552;DHT22;9921;47.186;9.778;2023-12-22T10:44:47;8.80;99.90
19552;DHT22;9921;47.186;9.778;2023-12-22T10:47:14;8.80;99.90
19552;DHT22;9921;47.186;9.778;2023-12-22T10:49:41;8.80;99.90
19552;DHT22;9921;47.186;9.778;2023-12-22T10:52:15;8.80;99.90
19552;DHT22;9921;47.186;9.778;2023-12-22T10:54:44;8.90;99.90
19552;DHT22;9921;47.186;9.778;2023-12-22T10:57:12;8.90;99.90
19552;DHT22;9921;47.186;9.778;2023-12-22T10:59:45;8.80;99.90
19552;DHT22;9921;47.186;9.778;2023-12-22T11:02:15;8.80;99.90
19552;DHT22;9921;47.186;9.778;2023-12-22T11:04:49;8.80;99.90
19552;DHT22;9921;47.186;9.778;2023-12-22T11:07:23;8.70;99.90
19552;DHT22;9921;47.186;9.778;2023-12-22T11:09:53;8.60;99.90
19552;DHT22;9921;47.186;9.778;2023-12-22T11:12:23;8.60;99.90
19552;DHT22;9921;47.186;9.778;2023-12-22T11:14:52;8.60;99.90
19552;DHT22;9921;47.186;9.778;2023-12-22T11:17:21;8.70;99.90
19552;DHT22;9921;47.186;9.778;2023-12-22T11:19:49;8.70;99.90
19552;DHT22;9921;47.186;9.778;2023-12-22T11:22:17;8.80;99.90
19552;DHT22;9921;47.186;9.778;2023-12-22T11:24:46;8.80;99.90
19552;DHT22;9921;47.186;9.778;2023-12-22T11:27:16;8.90;99.90
19552;DHT22;9921;47.186;9.778;2023-12-22T11:29:45;8.80;99.90
19552;DHT22;9921;47.186;9.778;2023-12-22T11:32:15;8.80;99.90
19552;DHT22;9921;47.186;9.778;2023-12-22T11:34:43;8.90;99.90
19552;DHT22;9921;47.186;9.778;2023-12-22T11:37:11;8.90;99.90
19552;DHT22;9921;47.186;9.778;2023-12-22T11:39:39;8.90;99.90
19552;DHT22;9921;47.186;9.778;2023-12-22T11:42:08;9.00;99.90
19552;DHT22;9921;47.186;9.778;2023-12-22T11:44:38;9.00;99.90
19552;DHT22;9921;47.186;9.778;2023-12-22T11:47:06;9.00;99.90
19552;DHT22;9921;47.186;9.778;2023-12-22T11:49:35;9.10;99.90
19552;DHT22;9921;47.186;9.778;2023-12-22T11:52:12;9.10;99.90
19552;DHT22;9921;47.186;9.778;2023-12-22T11:54:47;9.10;99.90
19552;DHT22;9921;47.186;9.778;2023-12-22T11:57:29;9.10;99.90
19552;DHT22;9921;47.186;9.778;2023-12-22T11:59:58;9.10;99.90
19552;DHT22;9921;47.186;9.778;2023-12-22T12:02:29;9.10;99.90
19552;DHT22;9921;47.186;9.778;2023-12-22T12:04:58;9.10;99.90
19552;DHT22;9921;47.186;9.778;2023-12-22T12:07:44;9.10;99.90
19552;DHT22;9921;47.186;9.778;2023-12-22T12:13:04;9.10;99.90
19552;DHT22;9921;47.186;9.778;2023-12-22T12:15:33;9.10;99.90
19552;DHT22;9921;47.186;9.778;2023-12-22T12:18:00;9.10;99.90
19552;DHT22;9921;47.186;9.778;2023-12-22T12:20:28;9.10;99.90
19552;DHT22;9921;47.186;9.778;2023-12-22T12:22:55;9.10;99.90
19552;DHT22;9921;47.186;9.778;2023-12-22T12:25:22;9.10;99.90
19552;DHT22;9921;47.186;9.778;2023-12-22T12:27:51;9.10;99.90
19552;DHT22;9921;47.186;9.778;2023-12-22T12:30:27;9.10;99.90
19552;DHT22;9921;47.186;9.778;2023-12-22T12:32:59;9.10;99.90
19552;DHT22;9921;47.186;9.778;2023-12-22T12:35:28;9.10;99.90
19552;DHT22;9921;47.186;9.778;2023-12-22T12:37:55;9.10;99.90
19552;DHT22;9921;47.186;9.778;2023-12-22T12:40:24;8.90;99.90
19552;DHT22;9921;47.186;9.778;2023-12-22T12:42:52;8.90;99.90
19552;DHT22;9921;47.186;9.778;2023-12-22T12:45:22;9.00;99.90
19552;DHT22;9921;47.186;9.778;2023-12-22T12:47:56;8.90;99.90
19552;DHT22;9921;47.186;9.778;2023-12-22T12:50:24;8.90;99.90
19552;DHT22;9921;47.186;9.778;2023-12-22T12:52:51;8.90;99.90
19552;DHT22;9921;47.186;9.778;2023-12-22T12:55:19;8.90;99.90
19552;DHT22;9921;47.186;9.778;2023-12-22T12:57:48;8.80;99.90
19552;DHT22;9921;47.186;9.778;2023-12-22T13:00:16;8.80;99.90
19552;DHT22;9921;47.186;9.778;2023-12-22T13:02:43;8.70;99.90
19552;DHT22;9921;47.186;9.778;2023-12-22T13:05:21;8.70;99.90
19552;DHT22;9921;47.186;9.778;2023-12-22T13:07:48;8.70;99.90
19552;DHT22;9921;47.186;9.778;2023-12-22T13:10:22;8.70;99.90
19552;DHT22;9921;47.186;9.778;2023-12-22T13:12:50;8.60;99.90
19552;DHT22;9921;47.186;9.778;2023-12-22T13:15:19;8.60;99.90
19552;DHT22;9921;47.186;9.778;2023-12-22T13:17:47;8.60;99.90
19552;DHT22;9921;47.186;9.778;2023-12-22T13:20:14;8.50;99.90
19552;DHT22;9921;47.186;9.778;2023-12-22T13:22:43;8.50;99.90
19552;DHT22;9921;47.186;9.778;2023-12-22T13:25:10;8.50;99.90
19552;DHT22;9921;47.186;9.778;2023-12-22T13:27:46;8.50;99.90
19552;DHT22;9921;47.186;9.778;2023-12-22T13:30:14;8.40;99.90
19552;DHT22;9921;47.186;9.778;2023-12-22T13:32:43;8.30;99.90
19552;DHT22;9921;47.186;9.778;2023-12-22T13:35:13;8.30;99.90
19552;DHT22;9921;47.186;9.778;2023-12-22T13:37:44;8.10;99.90
19552;DHT22;9921;47.186;9.778;2023-12-22T13:40:12;7.90;99.90
19552;DHT22;9921;47.186;9.778;2023-12-22T13:42:39;7.70;99.90
19552;DHT22;9921;47.186;9.778;2023-12-22T13:45:10;7.50;99.90
19552;DHT22;9921;47.186;9.778;2023-12-22T13:47:40;7.40;99.90
19552;DHT22;9921;47.186;9.778;2023-12-22T13:50:13;7.20;99.90
19552;DHT22;9921;47.186;9.778;2023-12-22T13:52:41;7.20;99.90
19552;DHT22;9921;47.186;9.778;2023-12-22T13:55:12;7.20;99.90
19552;DHT22;9921;47.186;9.778;2023-12-22T13:57:39;7.20;99.90
19552;DHT22;9921;47.186;9.778;2023-12-22T14:00:24;7.20;99.90
19552;DHT22;9921;47.186;9.778;2023-12-22T14:02:51;7.20;99.90
19552;DHT22;9921;47.186;9.778;2023-12-22T14:05:19;7.00;99.90
19552;DHT22;9921;47.186;9.778;2023-12-22T14:07:46;6.90;99.90
19552;DHT22;9921;47.186;9.778;2023-12-22T14:10:15;6.90;99.90
19552;DHT22;9921;47.186;9.778;2023-12-22T14:12:42;6.90;99.90
19552;DHT22;9921;47.186;9.778;2023-12-22T14:15:09;7.00;99.90
19552;DHT22;9921;47.186;9.778;2023-12-22T14:17:37;7.10;99.90
19552;DHT22;9921;47.186;9.778;2023-12-22T14:20:05;7.10;99.90
19552;DHT22;9921;47.186;9.778;2023-12-22T14:22:35;7.10;99.90
19552;DHT22;9921;47.186;9.778;2023-12-22T14:25:02;7.10;99.90
19552;DHT22;9921;47.186;9.778;2023-12-22T14:27:31;7.10;99.90
19552;DHT22;9921;47.186;9.778;2023-12-22T14:29:57;7.00;99.90
19552;DHT22;9921;47.186;9.778;2023-12-22T14:32:24;7.00;99.90
19552;DHT22;9921;47.186;9.778;2023-12-22T14:34:53;7.00;99.90
19552;DHT22;9921;47.186;9.778;2023-12-22T14:37:20;7.00;99.90
19552;DHT22;9921;47.186;9.778;2023-12-22T14:39:47;7.10;99.90
19552;DHT22;9921;47.186;9.778;2023-12-22T14:42:14;7.10;99.90
19552;DHT22;9921;47.186;9.778;2023-12-22T14:44:42;7.20;99.90
19552;DHT22;9921;47.186;9.778;2023-12-22T14:47:12;7.10;99.90
19552;DHT22;9921;47.186;9.778;2023-12-22T14:49:39;7.10;99.90
19552;DHT22;9921;47.186;9.778;2023-12-22T14:52:06;7.10;99.90
19552;DHT22;9921;47.186;9.778;2023-12-22T14:54:33;7.00;99.90
19552;DHT22;9921;47.186;9.778;2023-12-22T14:57:00;7.00;99.90
19552;DHT22;9921;47.186;9.778;2023-12-22T14:59:27;7.10;99.90
19552;DHT22;9921;47.186;9.778;2023-12-22T15:01:55;7.00;99.90
19552;DHT22;9921;47.186;9.778;2023-12-22T15:04:22;6.90;99.90
19552;DHT22;9921;47.186;9.778;2023-12-22T15:06:49;6.80;99.90
19552;DHT22;9921;47.186;9.778;2023-12-22T15:09:17;6.70;99.90
19552;DHT22;9921;47.186;9.778;2023-12-22T15:11:44;6.60;99.90
19552;DHT22;9921;47.186;9.778;2023-12-22T15:14:12;6.70;99.90
19552;DHT22;9921;47.186;9.778;2023-12-22T15:16:39;6.60;99.90
19552;DHT22;9921;47.186;9.778;2023-12-22T15:19:08;6.70;99.90
19552;DHT22;9921;47.186;9.778;2023-12-22T15:21:35;6.80;99.90
19552;DHT22;9921;47.186;9.778;2023-12-22T15:24:03;6.80;99.90
19552;DHT22;9921;47.186;9.778;2023-12-22T15:26:30;6.90;99.90
19552;DHT22;9921;47.186;9.778;2023-12-22T15:28:59;6.90;99.90
19552;DHT22;9921;47.186;9.778;2023-12-22T15:31:26;6.70;99.90
19552;DHT22;9921;47.186;9.778;2023-12-22T15:33:54;6.70;99.90
19552;DHT22;9921;47.186;9.778;2023-12-22T15:36:22;6.60;99.90
19552;DHT22;9921;47.186;9.778;2023-12-22T15:38:50;6.60;99.90
19552;DHT22;9921;47.186;9.778;2023-12-22T15:41:17;6.70;99.90
19552;DHT22;9921;47.186;9.778;2023-12-22T15:43:44;6.70;99.90
19552;DHT22;9921;47.186;9.778;2023-12-22T15:46:11;6.70;99.90
19552;DHT22;9921;47.186;9.778;2023-12-22T15:48:38;6.70;99.90
19552;DHT22;9921;47.186;9.778;2023-12-22T15:51:05;6.70;99.90
19552;DHT22;9921;47.186;9.778;2023-12-22T15:53:36;6.80;99.90
19552;DHT22;9921;47.186;9.778;2023-12-22T15:56:04;6.90;99.90
19552;DHT22;9921;47.186;9.778;2023-12-22T15:58:31;6.90;99.90
19552;DHT22;9921;47.186;9.778;2023-12-22T16:00:58;6.80;99.90
19552;DHT22;9921;47.186;9.778;2023-12-22T16:03:25;6.70;99.90
19552;DHT22;9921;47.186;9.778;2023-12-22T16:05:52;6.70;99.90
19552;DHT22;9921;47.186;9.778;2023-12-22T16:08:19;6.80;99.90
19552;DHT22;9921;47.186;9.778;2023-12-22T16:10:47;6.90;99.90